Salvador de Bahía, Brasil

7:18 PM BRT en Octubre 01, 2014 (GMT -0300)
DEP. L. E. Magalhaes International | Change Station
CLOSE
Current Station
Aeropuerto
Location: Salvador Airport,
Altura: 20 ft
Estaciones meteorológicas cercanas

Alt 20 ft 12.91 °S, 38.33 °W | Updated 18 minutes ago

Partly Cloudy
Parcialmente nublado
77 ° F
Sensación térmica 77 ° F
N
9
Viento Variable Viento desde Este

Hoy
Alta -- | Baja -- ° F
--% Posibilidad de precipitaciones
Ayer
Alta -- | Baja -- ° F
Precip. -- pul
5:17 AM 5:30 PM
Cuarto creciente, 51% visible
Presión 29.95 pul
Visibilidad 6.2 Millas
Nubes Baja 1700 ft
Punto de rocío 68 ° F
Humedad 74%
Precipitaciones 0.00 pul
Espesor de la nieve No disponible.
UV 0 de una escala de 12
Polen No disponible.
Calidad del aire No disponible.
Flu Activity No disponible.
METAR SBSV 012200Z 08008KT 9999 FEW017 25/20 Q1014

More Conditions Fewer Conditions

Presión 29.95 pul
Visibilidad 6.2 Millas
Nubes Baja 1700 ft
Punto de rocío 68 ° F
Humedad 74%
Precipitaciones 0.00 pul
Espesor de la nieve No disponible.
UV 0 de una escala de 12
Polen No disponible.
Calidad del aire No disponible.
Flu Activity No disponible.
METAR SBSV 012200Z 08008KT 9999 FEW017 25/20 Q1014

More Conditions Fewer Conditions

10-Day Weather Forecast

Almanac

Astronomía

Oct. 01, 2014 Salida Puesta
Hora real 5:17 AM BRT 5:30 PM BRT
Crepúsculo civil 4:56 AM BRT 5:51 PM BRT
Crepúsculo náutico 4:31 AM BRT 6:16 PM BRT
Crepúsculo astronómico 4:06 AM BRT 6:41 PM BRT
Luna 10:59 AM BRT Sin puesta de luna
Horas de luz 12h 55m
Horas de luz
12h 12m
Tomorrow will be 0m 44s longer.
Cuarto creciente, 51% of the Moon is Illuminated
Hoy
Cuarto creciente
Oct 8
Luna llena
Oct 15
Cuarto menguante
Oct 23
Nueva
Oct 30
Cuarto creciente

Extremos de hoy

Máximos del país Bajas del país

Community

WunderPhotos

Upload Photos

1,758,058 ¡fotos cargadas!

WunderBlogs® & News

By Dr. Jeff Masters
Director of Meteorology, Weather Underground
By Kari Strenfel
Meteorologist, Weather Underground
By Christopher C. Burt
Weather Historian, Weather Underground
October 1, 2014
October 1, 2014
October 1, 2014

Nearby

Calidad del aire

Not available.

Grosos de nieve

Not available.

Actividad de terremotos

Ciudad Distance Mag. Tiempo y dato
No hay informes recientes de la actividad sísmica.
Magnitud mínima muestra es 2,5.

Temperaturas de aguas costeras

Lugar Temperatura
Sin partes meteorológicos de las estaciones

Estaciones meteorológicas cercanas